Latest Weather Observations for Central Arnhem Plateau

IDD60801

Issued at 6:31 am CST Friday 1 July 2016 (issued every 30 minutes, with the page automatically refreshed every 10 minutes)

About weather observations | Map of weather stations | Latest weather observations for NT | Other Formats
Station Details ID: 014909 Name: CENTRAL ARNHEM PLATEAU Lat: -13.33 Lon: 133.09 Height: 416.0 m
Data from the previous 72 hours. | See also: Recent months at Central Arnhem Plateau
Date/Time
CST
Temp
°C
App
Temp
°C
Dew
Point
°C
Rel
Hum
%
Delta-T
°C
Wind Press
QNH
hPa
Press
MSL
hPa
Rain since
9am
mm
Dir  Spd
km/h
Gust
km/h
Spd
kts
Gust
kts
01/06:30am 16.8 16.1 13.1 79 2.1 SE 9 9 5 5 1017.5 1015.6 0.0
01/06:00am 17.4 17.1 13.3 77 2.3 E 7 9 4 5 1017.4 1015.5 0.0
01/05:30am 17.6 16.9 13.3 76 2.5 E 9 11 5 6 1017.2 1015.3 0.0
01/05:00am 18.0 17.0 13.3 74 2.7 E 11 13 6 7 1017.0 1015.1 0.0
01/04:30am 18.3 17.3 13.4 73 2.8 E 11 13 6 7 1016.9 1015.0 0.0
01/04:00am 18.6 17.5 13.0 70 3.2 E 11 15 6 8 1016.9 1015.0 0.0
01/03:30am 18.8 18.0 13.0 69 3.3 E 9 11 5 6 1017.1 1015.2 0.0
01/03:00am 18.8 18.0 12.8 68 3.4 ESE 9 11 5 6 1016.9 1015.0 0.0
01/02:30am 19.1 18.1 12.4 65 3.8 ESE 9 11 5 6 1016.7 1014.8 0.0
01/02:00am 19.7 18.4 12.5 63 4.1 E 11 15 6 8 1017.0 1015.1 0.0
01/01:30am 20.3 18.6 12.5 61 4.5 E 13 17 7 9 1017.2 1015.3 0.0
01/01:00am 20.7 19.5 12.7 60 4.6 E 11 15 6 8 1017.3 1015.4 0.0
01/12:30am 21.1 19.1 12.8 59 4.8 E 15 20 8 11 1017.4 1015.5 0.0
01/12:00am 21.5 20.0 13.2 59 4.8 E 13 19 7 10 1017.4 1015.5 0.0
 
Date/Time
CST
Temp
°C
App
Temp
°C
Dew
Point
°C
Rel
Hum
%
Delta-T
°C
Wind Press
QNH
hPa
Press
MSL
hPa
Rain since
9am
mm
Dir  Spd
km/h
Gust
km/h
Spd
kts
Gust
kts
30/11:30pm 21.9 20.4 13.0 57 5.2 E 13 17 7 9 1017.4 1015.5 0.0
30/11:00pm 22.4 20.9 13.2 56 5.4 E 13 19 7 10 1017.5 1015.6 0.0
30/10:30pm 22.9 20.3 13.1 54 5.7 E 19 30 10 16 1017.5 1015.6 0.0
30/10:00pm 23.1 20.7 12.7 52 6.1 E 17 24 9 13 1017.4 1015.5 0.0
30/09:30pm 22.7 21.1 12.9 54 5.7 ESE 13 15 7 8 1017.4 1015.5 0.0
30/09:00pm 22.0 21.7 12.8 56 5.3 E 6 9 3 5 1017.3 1015.4 0.0
30/08:30pm 23.9 23.6 13.2 51 6.3 ESE 7 9 4 5 1017.1 1015.2 0.0
30/08:00pm 24.3 23.6 13.2 50 6.6 ESE 9 11 5 6 1016.8 1014.9 0.0
30/07:30pm 24.7 23.9 13.0 48 6.9 ESE 9 11 5 6 1016.6 1014.6 0.0
30/07:00pm 25.3 24.1 12.9 46 7.3 ESE 11 13 6 7 1016.3 1014.4 0.0
30/06:30pm 26.2 24.5 12.6 43 8.0 ESE 13 17 7 9 1016.2 1014.3 0.0
30/06:00pm 27.0 25.0 12.6 41 8.5 ESE 15 19 8 10 1015.9 1014.0 0.0
30/05:30pm 27.6 25.0 12.0 38 9.2 ESE 17 22 9 12 1015.5 1013.6 0.0
30/05:00pm 28.2 25.4 12.5 37 9.3 SE 19 24 10 13 1015.3 1013.4 0.0
30/04:30pm 28.1 25.1 12.5 38 9.3 SE 20 30 11 16 1015.1 1013.2 0.0
30/04:00pm 28.8 25.7 12.2 35 9.8 ESE 20 28 11 15 1015.1 1013.2 0.0
30/03:30pm 28.3 25.1 11.8 36 9.7 ESE 20 28 11 15 1015.4 1013.5 0.0
30/03:00pm 29.0 26.5 12.4 36 9.9 ESE 17 24 9 13 1015.6 1013.7 0.0
30/02:30pm 29.1 27.2 14.1 40 9.2 SE 17 32 9 17 1015.8 1013.9 0.0
30/02:00pm 28.3 25.9 13.8 41 8.8 ESE 19 28 10 15 1016.3 1014.4 0.0
30/01:30pm 27.7 25.2 14.0 43 8.3 ESE 20 32 11 17 1016.9 1015.0 0.0
30/01:00pm 27.5 25.1 14.5 45 7.9 ESE 20 32 11 17 1017.3 1015.4 0.0
30/12:30pm 27.3 25.4 15.3 48 7.4 ESE 19 28 10 15 1017.8 1015.9 0.0
30/12:00pm 27.0 25.0 15.4 49 7.2 ESE 20 28 11 15 1018.1 1016.2 0.0
30/11:30am 26.2 24.0 15.0 50 6.9 ESE 20 32 11 17 1018.8 1017.0 0.0
30/11:00am 25.5 23.0 16.1 56 5.8 SE 24 32 13 17 1019.2 1017.3 0.0
30/10:30am 25.3 23.8 16.7 59 5.4 ESE 20 30 11 16 1019.3 1017.4 0.0
30/10:00am 24.4 22.8 16.6 61 4.9 ESE 20 28 11 15 1019.7 1017.8 0.0
30/09:30am 23.0 21.5 16.8 68 3.9 ESE 20 28 11 15 1019.7 1017.8 0.0
30/09:00am 21.6 20.0 16.1 71 3.4 ESE 19 26 10 14 1019.6 1017.7 0.0
30/08:30am 20.3 19.0 15.9 76 2.7 SE 17 24 9 13 1019.5 1017.6 0.0
30/08:00am 18.9 17.9 14.6 76 2.5 SE 13 19 7 10 1019.2 1017.3 0.0
30/07:30am 18.0 17.1 13.7 76 2.5 SE 11 15 6 8 1018.7 1016.8 0.0
30/07:00am 17.6 16.4 12.7 73 2.8 SE 11 15 6 8 1018.4 1016.5 0.0
30/06:30am 17.7 16.4 12.6 72 2.9 SE 11 13 6 7 1018.1 1016.2 0.0
30/06:00am 17.5 15.9 11.5 68 3.3 SE 11 15 6 8 1017.8 1015.9 0.0
30/05:30am 17.7 16.0 11.3 66 3.5 ESE 11 15 6 8 1017.7 1015.8 0.0
30/05:00am 17.8 15.8 11.4 66 3.6 ESE 13 15 7 8 1017.5 1015.6 0.0
30/04:30am 17.6 15.8 10.7 64 3.8 E 11 15 6 8 1017.6 1015.7 0.0
30/04:00am 18.2 16.4 10.8 62 4.1 ESE 11 15 6 8 1017.5 1015.6 0.0
30/03:30am 18.2 16.8 11.0 63 4.0 ESE 9 13 5 7 1017.7 1015.8 0.0
30/03:00am 17.1 16.2 10.7 66 3.5 E 6 7 3 4 1017.8 1015.9 0.0
30/02:30am 19.0 17.8 11.6 62 4.1 SE 9 13 5 7 1018.1 1016.2 0.0
30/02:00am 17.8 17.6 10.4 62 4.0 ENE 2 7 1 4 1018.3 1016.4 0.0
30/01:30am 19.8 18.6 11.6 59 4.6 SE 9 13 5 7 1018.5 1016.6 0.0
30/01:00am 19.2 18.1 10.7 58 4.7 ESE 7 11 4 6 1018.5 1016.6 0.0
30/12:30am 19.8 19.0 11.6 59 4.6 ESE 7 11 4 6 1018.5 1016.6 0.0
30/12:00am 19.8 18.7 10.5 55 5.1 E 7 11 4 6 1018.6 1016.7 0.0
 
Date/Time
CST
Temp
°C
App
Temp
°C
Dew
Point
°C
Rel
Hum
%
Delta-T
°C
Wind Press
QNH
hPa
Press
MSL
hPa
Rain since
9am
mm
Dir  Spd
km/h
Gust
km/h
Spd
kts
Gust
kts
29/11:30pm 20.9 19.1 11.0 53 5.5 SE 11 13 6 7 1018.7 1016.8 0.0
29/11:00pm 21.3 19.6 11.1 52 5.7 SE 11 13 6 7 1018.7 1016.8 0.0
29/10:30pm 21.7 20.4 11.1 51 6.0 ESE 9 13 5 7 1018.7 1016.8 0.0
29/10:00pm 21.9 21.0 11.3 51 6.0 ESE 7 11 4 6 1018.5 1016.6 0.0
29/09:30pm 22.1 21.1 10.9 49 6.3 ESE 7 9 4 5 1018.4 1016.5 0.0
29/09:00pm 23.1 21.7 10.9 46 6.9 ESE 9 9 5 5 1018.2 1016.3 0.0
29/08:30pm 23.7 22.2 10.7 44 7.3 ESE 9 11 5 6 1017.9 1016.0 0.0
29/08:00pm 23.9 22.8 10.6 43 7.5 ESE 7 9 4 5 1017.7 1015.8 0.0
29/07:30pm 24.5 23.0 10.4 41 7.9 ESE 9 13 5 7 1017.2 1015.3 0.0
29/07:00pm 25.3 23.0 10.4 39 8.4 ESE 13 15 7 8 1016.7 1014.8 0.0
29/06:30pm 26.1 24.0 9.9 36 9.1 ESE 11 17 6 9 1016.2 1014.3 0.0
29/06:00pm 27.3 24.5 10.1 34 9.8 ESE 15 20 8 11 1015.9 1014.0 0.0
29/05:30pm 28.0 24.8 9.8 32 10.3 ESE 17 26 9 14 1015.5 1013.6 0.0
29/05:00pm 28.5 25.0 10.2 32 10.5 ESE 19 24 10 13 1015.3 1013.4 0.0
29/04:30pm 28.8 25.6 10.0 31 10.8 E 17 26 9 14 1015.1 1013.2 0.0
29/04:00pm 28.4 25.2 10.1 32 10.5 E 17 26 9 14 1015.0 1013.1 0.0
29/03:30pm 28.9 25.2 10.1 31 10.8 ESE 20 30 11 16 1015.0 1013.1 0.0
29/03:00pm 28.6 25.1 10.3 32 10.5 ESE 19 28 10 15 1015.1 1013.2 0.0
29/02:30pm 27.8 24.1 10.1 33 10.1 ESE 20 30 11 16 1015.5 1013.6 0.0
29/02:00pm 27.8 24.2 10.5 34 9.9 ESE 20 32 11 17 1016.0 1014.1 0.0
29/01:30pm 27.4 23.4 10.6 35 9.6 ESE 22 33 12 18 1016.6 1014.6 0.0
29/01:00pm 27.2 22.8 10.4 35 9.6 ESE 24 33 13 18 1017.1 1015.2 0.0
29/12:30pm 26.5 21.6 9.8 35 9.4 ESE 26 37 14 20 1017.6 1015.7 0.0
29/12:00pm 26.0 21.2 8.9 34 9.5 SE 24 33 13 18 1018.2 1016.3 0.0
29/11:30am 25.5 20.6 8.5 34 9.3 SE 24 32 13 17 1018.7 1016.8 0.0
29/11:00am 24.5 19.5 8.0 35 8.9 SE 24 33 13 18 1019.3 1017.4 0.0
29/10:30am 23.3 18.3 8.2 38 8.1 ESE 24 35 13 19 1019.5 1017.6 0.0
29/10:00am 22.5 18.4 8.6 41 7.5 SE 20 30 11 16 1019.7 1017.8 0.0
29/09:30am 21.9 16.8 9.1 44 7.0 SE 26 39 14 21 1019.6 1017.7 0.0
29/09:00am 20.8 16.2 9.7 49 6.1 SE 24 39 13 21 1019.5 1017.6 0.0
29/08:30am 20.4 16.3 11.3 56 5.1 ESE 24 35 13 19 1019.2 1017.3 0.0
29/08:00am 19.6 15.8 14.6 73 3.0 ESE 28 41 15 22 1019.1 1017.2 0.0
29/07:30am 18.8 16.7 15.3 80 2.1 ESE 20 30 11 16 1019.0 1017.1 0.0
29/07:00am 18.4 16.0 15.5 83 1.7 ESE 22 30 12 16 1018.5 1016.6 0.0
29/06:30am 18.1 16.0 15.2 83 1.7 ESE 20 30 11 16 1018.4 1016.5 0.0
29/06:00am 18.0 15.9 15.1 83 1.7 ESE 20 26 11 14 1018.3 1016.4 0.0
29/05:30am 18.1 16.1 15.0 82 1.8 ESE 19 26 10 14 1018.2 1016.3 0.0
29/05:00am 17.9 16.1 14.4 80 2.1 ESE 17 24 9 13 1018.2 1016.3 0.0
29/04:30am 18.1 16.6 14.2 78 2.3 ESE 15 22 8 12 1018.0 1016.1 0.0
29/04:00am 18.3 17.2 14.2 77 2.4 E 13 17 7 9 1017.8 1015.9 0.0
29/03:30am 18.6 17.4 13.9 74 2.7 ESE 13 15 7 8 1017.9 1016.0 0.0
29/03:00am 19.1 17.4 13.7 71 3.1 E 15 20 8 11 1018.1 1016.2 0.0
29/02:30am 19.4 17.4 13.8 70 3.3 E 17 20 9 11 1018.2 1016.3 0.0
29/02:00am 19.6 18.1 14.2 71 3.2 E 15 19 8 10 1018.1 1016.2 0.0
29/01:30am 19.9 18.5 14.5 71 3.2 E 15 20 8 11 1018.2 1016.3 0.0
29/01:00am 20.3 18.5 14.4 69 3.5 E 17 24 9 13 1018.2 1016.3 0.0
29/12:30am 20.7 19.0 14.8 69 3.5 E 17 24 9 13 1018.3 1016.4 0.0
29/12:00am 21.1 19.6 15.2 69 3.6 E 17 24 9 13 1018.3 1016.4 0.0
 
Date/Time
CST
Temp
°C
App
Temp
°C
Dew
Point
°C
Rel
Hum
%
Delta-T
°C
Wind Press
QNH
hPa
Press
MSL
hPa
Rain since
9am
mm
Dir  Spd
km/h
Gust
km/h
Spd
kts
Gust
kts
28/11:30pm 21.7 20.2 15.3 67 3.9 E 17 24 9 13 1018.4 1016.5 0.0
28/11:00pm 22.0 20.9 15.4 66 4.0 E 15 20 8 11 1018.4 1016.5 0.0
28/10:30pm 22.4 20.6 15.5 65 4.2 E 19 24 10 13 1018.3 1016.4 0.0
28/10:00pm 22.8 21.0 15.4 63 4.5 E 19 30 10 16 1018.4 1016.5 0.0
28/09:30pm 23.3 21.7 15.1 60 5.0 E 17 20 9 11 1018.3 1016.4 0.0
28/09:00pm 24.0 21.9 14.7 56 5.6 E 19 26 10 14 1018.2 1016.3 0.0
28/08:30pm 24.5 22.6 14.3 53 6.1 ESE 17 24 9 13 1017.8 1015.9 0.0
28/08:00pm 25.0 23.0 13.9 50 6.7 ESE 17 24 9 13 1017.3 1015.4 0.0
28/07:30pm 25.4 24.2 13.9 49 6.9 ESE 13 19 7 10 1016.9 1015.0 0.0
28/07:00pm 26.1 24.0 13.6 46 7.5 ESE 17 22 9 12 1016.7 1014.8 0.0
28/06:30pm 26.6 24.0 13.3 43 7.9 ESE 19 24 10 13 1016.3 1014.4 0.0
28/06:00pm 27.4 25.0 13.7 43 8.3 ESE 19 26 10 14 1016.1 1014.2 0.0
28/05:30pm 28.1 25.3 13.2 39 8.9 ESE 20 28 11 15 1015.8 1013.9 0.0
28/05:00pm 29.0 26.0 13.6 38 9.3 SE 22 33 12 18 1015.6 1013.7 0.0
28/04:30pm 28.8 25.2 13.1 38 9.4 ESE 24 39 13 21 1015.4 1013.5 0.0
28/04:00pm 29.1 25.7 13.7 38 9.4 SE 24 33 13 18 1015.1 1013.2 0.0
28/03:30pm 30.0 27.1 14.1 37 9.8 ESE 22 39 12 21 1014.9 1013.0 0.0
28/03:00pm 28.9 26.1 13.2 38 9.5 ESE 20 33 11 18 1015.0 1013.1 0.0
28/02:30pm 29.1 26.2 14.1 40 9.2 E 22 30 12 16 1015.3 1013.4 0.0
28/02:00pm 28.6 25.3 14.1 41 8.8 ESE 24 33 13 18 1015.5 1013.6 0.0
28/01:30pm 29.8 27.6 15.9 43 8.7 E 22 32 12 17 1016.0 1014.1 0.0
28/01:00pm 28.8 25.7 15.7 45 8.2 E 26 39 14 21 1016.5 1014.5 0.0
28/12:30pm 27.5 23.9 15.2 47 7.6 ESE 28 39 15 21 1017.0 1015.1 0.0
28/12:00pm 27.6 24.2 15.9 49 7.3 E 28 37 15 20 1017.4 1015.5 0.0
28/11:30am 26.7 23.9 16.3 53 6.5 ESE 26 43 14 23 1017.6 1015.7 0.0
28/11:21am 27.6 24.8 17.2 53 6.6 E 28 46 15 25 1017.7 1015.8 0.0
28/11:00am 26.4 22.8 16.3 53 6.3 ESE 30 41 16 22 1017.8 1015.9 0.0
28/10:30am 25.5 22.4 16.6 58 5.6 E 28 39 15 21 1017.8 1015.9 0.0
28/10:00am 25.7 22.4 17.1 59 5.4 E 30 41 16 22 1017.8 1015.9 0.0
28/09:30am 24.5 21.9 17.7 66 4.3 E 28 37 15 20 1017.8 1015.9 0.0
28/09:00am 23.4 20.6 17.4 69 3.8 ESE 28 39 15 21 1017.5 1015.6 0.0
28/08:30am 22.9 21.4 17.8 73 3.2 ESE 22 37 12 20 1017.4 1015.5 0.0
28/08:00am 22.6 21.6 17.9 75 3.0 ESE 20 26 11 14 1017.1 1015.2 0.0
28/07:30am 22.1 21.1 17.9 77 2.7 ESE 20 32 11 17 1016.9 1015.0 0.0
28/07:00am 21.8 21.3 17.8 78 2.5 ESE 17 28 9 15 1016.8 1014.9 0.0

Other Formats:

Comma delimited format used in spreadsheet applications
http://www.bom.gov.au/fwo/IDD60801/IDD60801.94141.axf

JavaScript Object Notation format (JSON) in row-major order
http://www.bom.gov.au/fwo/IDD60801/IDD60801.94141.json